Time;durP1;ratioP1;P1;durP2;ratioP2;P2;SDS_P1;SDS_P2;PMS_P1;PMS_P2;Temp;Humidity;BMP_temperature;BMP_pressure;BME280_temperature;BME280_humidity;BME280_pressure;Samples;Min_cycle;Max_cycle;Signal;HPM_P1;HPM_P2
2023/11/21 00:02:23;;;;;;;28.70;17.73;;;;;;;;;;2611657;54;20561;-77
2023/11/21 00:04:49;;;;;;;29.70;19.40;;;;;;;;;;2612366;54;20443;-76
2023/11/21 00:07:15;;;;;;;30.73;17.93;;;;;;;;;;2612852;54;20525;-75
2023/11/21 00:09:42;;;;;;;35.30;17.87;;;;;;;;;;2611647;54;20414;-74
2023/11/21 00:12:09;;;;;;;29.00;16.93;;;;;;;;;;2615138;54;20413;-74
2023/11/21 00:14:38;;;;;;;27.77;16.00;;;;;;;;;;2614422;54;20426;-75
2023/11/21 00:17:06;;;;;;;24.60;15.40;;;;;;;;;;2615079;54;20979;-74
2023/11/21 00:19:40;;;;;;;25.23;16.47;;;;;;;;;;2614147;47;20738;-74
2023/11/21 00:22:15;;;;;;;26.77;17.53;;;;;;;;;;2615385;54;20443;-75
2023/11/21 00:24:42;;;;;;;26.20;15.47;;;;;;;;;;2614130;47;20414;-75
2023/11/21 00:27:08;;;;;;;24.13;15.13;;;;;;;;;;2614644;47;20457;-74
2023/11/21 00:29:35;;;;;;;21.67;14.10;;;;;;;;;;2613500;54;20530;-75
2023/11/21 00:32:07;;;;;;;24.13;15.00;;;;;;;;;;2613666;47;20439;-75
2023/11/21 00:34:34;;;;;;;22.30;16.20;;;;;;;;;;2614816;39;20933;-75
2023/11/21 00:37:02;;;;;;;23.20;15.77;;;;;;;;;;2613801;54;20416;-75
2023/11/21 00:39:28;;;;;;;20.03;14.73;;;;;;;;;;2614300;39;22201;-74
2023/11/21 00:42:05;;;;;;;20.93;13.87;;;;;;;;;;2614007;54;20413;-75
2023/11/21 00:44:31;;;;;;;21.50;14.23;;;;;;;;;;2612868;54;20422;-75
2023/11/21 00:46:57;;;;;;;25.50;15.03;;;;;;;;;;2613586;54;20408;-75
2023/11/21 00:49:27;;;;;;;22.47;13.47;;;;;;;;;;2614231;54;20449;-74
2023/11/21 00:51:55;;;;;;;28.17;13.23;;;;;;;;;;2614172;39;20789;-74
2023/11/21 00:54:23;;;;;;;20.03;13.20;;;;;;;;;;2614104;54;20429;-74
2023/11/21 00:56:50;;;;;;;26.53;13.90;;;;;;;;;;2613990;47;20433;-74
2023/11/21 00:59:16;;;;;;;18.67;12.73;;;;;;;;;;2613651;54;20474;-75
2023/11/21 01:01:44;;;;;;;27.80;14.30;;;;;;;;;;2613848;54;20415;-75
2023/11/21 01:04:10;;;;;;;21.10;13.00;;;;;;;;;;2612797;54;20517;-74
2023/11/21 01:06:37;;;;;;;19.43;12.47;;;;;;;;;;2614775;39;20833;-74
2023/11/21 01:09:08;;;;;;;19.37;12.37;;;;;;;;;;2614330;54;20465;-74
2023/11/21 01:11:36;;;;;;;24.70;14.03;;;;;;;;;;2611374;54;20442;-73
2023/11/21 01:14:03;;;;;;;20.70;13.07;;;;;;;;;;2608854;54;20488;-74
2023/11/21 01:16:29;;;;;;;20.07;12.87;;;;;;;;;;2607894;54;20400;-74
2023/11/21 01:18:55;;;;;;;29.83;14.00;;;;;;;;;;2607631;48;20416;-74
2023/11/21 01:21:22;;;;;;;21.70;12.93;;;;;;;;;;2610087;54;20421;-74
2023/11/21 01:23:49;;;;;;;23.37;14.03;;;;;;;;;;2610787;54;20566;-75
2023/11/21 01:26:15;;;;;;;31.33;15.30;;;;;;;;;;2611849;54;20475;-75
2023/11/21 01:28:42;;;;;;;26.73;14.00;;;;;;;;;;2613329;46;20426;-74
2023/11/21 01:31:09;;;;;;;17.67;11.80;;;;;;;;;;2611456;54;20949;-75
2023/11/21 01:33:35;;;;;;;25.30;13.43;;;;;;;;;;2611769;54;20518;-75
2023/11/21 01:36:01;;;;;;;20.40;12.30;;;;;;;;;;2612271;54;20422;-75
2023/11/21 01:38:29;;;;;;;21.40;11.73;;;;;;;;;;2612637;54;20459;-75
2023/11/21 01:40:56;;;;;;;20.00;12.23;;;;;;;;;;2612748;54;20582;-75
2023/11/21 01:43:22;;;;;;;27.43;12.60;;;;;;;;;;2613359;54;20437;-75
2023/11/21 01:45:48;;;;;;;27.17;13.77;;;;;;;;;;2612770;47;20542;-75
2023/11/21 01:48:16;;;;;;;20.30;12.60;;;;;;;;;;2613286;54;20427;-75
2023/11/21 01:50:42;;;;;;;18.80;12.90;;;;;;;;;;2613927;54;20419;-74
2023/11/21 01:53:09;;;;;;;21.00;11.97;;;;;;;;;;2613512;39;20920;-75
2023/11/21 01:55:35;;;;;;;26.60;13.57;;;;;;;;;;2614134;54;20430;-75
2023/11/21 01:58:01;;;;;;;24.73;13.40;;;;;;;;;;2614069;54;20418;-74
2023/11/21 02:00:28;;;;;;;23.37;13.60;;;;;;;;;;2613808;47;20512;-75
2023/11/21 02:02:54;;;;;;;26.80;12.73;;;;;;;;;;2614971;54;20407;-74
2023/11/21 02:05:21;;;;;;;26.00;14.17;;;;;;;;;;2614046;47;20494;-75
2023/11/21 02:07:52;;;;;;;24.53;12.93;;;;;;;;;;2614484;54;20458;-76
2023/11/21 02:10:22;;;;;;;24.10;12.60;;;;;;;;;;2613936;51;20469;-74
2023/11/21 02:12:52;;;;;;;23.00;14.83;;;;;;;;;;2614123;54;20457;-74
2023/11/21 02:15:20;;;;;;;21.10;12.83;;;;;;;;;;2612652;54;20431;-75
2023/11/21 02:17:50;;;;;;;21.73;13.20;;;;;;;;;;2614914;54;20469;-74
2023/11/21 02:20:17;;;;;;;17.70;12.53;;;;;;;;;;2613493;47;20431;-75
2023/11/21 02:22:44;;;;;;;15.83;12.10;;;;;;;;;;2614917;39;20886;-74
2023/11/21 02:25:11;;;;;;;23.43;14.03;;;;;;;;;;2612842;54;20438;-75
2023/11/21 02:27:37;;;;;;;21.53;12.90;;;;;;;;;;2613911;51;20420;-75
2023/11/21 02:30:04;;;;;;;23.17;12.60;;;;;;;;;;2613526;46;20517;-74
2023/11/21 02:32:34;;;;;;;19.10;12.83;;;;;;;;;;2614633;54;20454;-74
2023/11/21 02:35:02;;;;;;;21.10;12.83;;;;;;;;;;2614833;46;20421;-74
2023/11/21 02:37:28;;;;;;;18.83;11.97;;;;;;;;;;2615287;54;20430;-75
2023/11/21 02:39:55;;;;;;;21.07;13.47;;;;;;;;;;2615354;54;20399;-75
2023/11/21 02:42:22;;;;;;;23.27;13.37;;;;;;;;;;2615321;54;20470;-74
2023/11/21 02:44:56;;;;;;;24.27;13.37;;;;;;;;;;2615063;54;20430;-74
2023/11/21 02:47:23;;;;;;;17.80;12.20;;;;;;;;;;2614850;54;20440;-74
2023/11/21 02:49:52;;;;;;;27.70;12.20;;;;;;;;;;2615548;54;20489;-74
2023/11/21 02:52:19;;;;;;;22.40;11.33;;;;;;;;;;2613348;47;20422;-75
2023/11/21 02:54:45;;;;;;;19.80;12.27;;;;;;;;;;2614628;54;20465;-75
2023/11/21 02:57:11;;;;;;;19.97;12.37;;;;;;;;;;2614757;54;20525;-74
2023/11/21 02:59:44;;;;;;;17.10;12.17;;;;;;;;;;2614939;54;20545;-74
2023/11/21 03:02:10;;;;;;;18.80;11.37;;;;;;;;;;2614943;54;20422;-74
2023/11/21 03:04:42;;;;;;;28.70;11.07;;;;;;;;;;2613948;46;20442;-75
2023/11/21 03:07:09;;;;;;;16.73;11.63;;;;;;;;;;2614843;46;20423;-75
2023/11/21 03:09:36;;;;;;;19.07;12.60;;;;;;;;;;2613423;47;20423;-75
2023/11/21 03:12:02;;;;;;;21.50;12.20;;;;;;;;;;2614101;54;20426;-75
2023/11/21 03:14:29;;;;;;;20.37;10.97;;;;;;;;;;2613814;54;20454;-74
2023/11/21 03:17:06;;;;;;;20.47;12.20;;;;;;;;;;2614567;54;20428;-75
2023/11/21 03:19:33;;;;;;;25.07;13.27;;;;;;;;;;2615379;46;20434;-75
2023/11/21 03:21:59;;;;;;;20.80;13.10;;;;;;;;;;2614451;54;20408;-75
2023/11/21 03:24:26;;;;;;;21.27;12.67;;;;;;;;;;2614296;54;20410;-75
2023/11/21 03:26:52;;;;;;;21.10;12.97;;;;;;;;;;2612695;54;21035;-75
2023/11/21 03:29:19;;;;;;;25.73;13.93;;;;;;;;;;2613588;54;20427;-75
2023/11/21 03:31:52;;;;;;;17.00;12.20;;;;;;;;;;2612612;54;20980;-75
2023/11/21 03:34:26;;;;;;;25.10;14.17;;;;;;;;;;2612730;54;20451;-75
2023/11/21 03:36:54;;;;;;;18.17;13.57;;;;;;;;;;2613254;54;20425;-76
2023/11/21 03:39:22;;;;;;;21.17;12.07;;;;;;;;;;2614102;54;20416;-75
2023/11/21 03:41:48;;;;;;;17.33;13.30;;;;;;;;;;2612175;39;20902;-74
2023/11/21 03:44:14;;;;;;;20.00;13.23;;;;;;;;;;2609143;47;20431;-74
2023/11/21 03:46:40;;;;;;;20.63;12.90;;;;;;;;;;2607859;54;21028;-74
2023/11/21 03:49:07;;;;;;;20.03;14.50;;;;;;;;;;2607615;54;20408;-75
2023/11/21 03:51:34;;;;;;;20.10;11.93;;;;;;;;;;2608907;54;20430;-74
2023/11/21 03:54:00;;;;;;;21.33;12.83;;;;;;;;;;2606341;46;20425;-74
2023/11/21 03:56:26;;;;;;;20.27;13.63;;;;;;;;;;2607994;50;20433;-74
2023/11/21 03:58:52;;;;;;;23.70;14.20;;;;;;;;;;2606554;54;20447;-74
2023/11/21 04:01:24;;;;;;;18.13;12.17;;;;;;;;;;2608967;54;20407;-74
2023/11/21 04:03:51;;;;;;;26.47;15.20;;;;;;;;;;2607683;54;20412;-75
2023/11/21 04:06:17;;;;;;;18.50;11.60;;;;;;;;;;2608948;54;20400;-74
2023/11/21 04:08:44;;;;;;;19.60;12.20;;;;;;;;;;2608351;54;20400;-74
2023/11/21 04:11:14;;;;;;;20.27;10.60;;;;;;;;;;2608964;54;20408;-73
2023/11/21 04:13:40;;;;;;;20.80;13.00;;;;;;;;;;2604334;39;20796;-75
2023/11/21 04:16:07;;;;;;;19.73;12.90;;;;;;;;;;2607800;54;20935;-74
2023/11/21 04:18:34;;;;;;;20.23;11.87;;;;;;;;;;2607457;54;20442;-75
2023/11/21 04:21:00;;;;;;;25.67;13.13;;;;;;;;;;2607827;54;20427;-74
2023/11/21 04:23:26;;;;;;;26.13;13.17;;;;;;;;;;2608955;54;20426;-74
2023/11/21 04:25:54;;;;;;;20.50;12.90;;;;;;;;;;2610919;54;20433;-74
2023/11/21 04:28:20;;;;;;;21.33;12.77;;;;;;;;;;2610677;54;20475;-74
2023/11/21 04:30:46;;;;;;;20.70;11.97;;;;;;;;;;2609488;54;20438;-74
2023/11/21 04:33:12;;;;;;;20.87;13.80;;;;;;;;;;2609437;50;20417;-75
2023/11/21 04:35:38;;;;;;;24.80;12.20;;;;;;;;;;2608840;54;20470;-75
2023/11/21 04:38:04;;;;;;;19.57;13.60;;;;;;;;;;2609961;54;20413;-74
2023/11/21 04:40:30;;;;;;;19.63;11.23;;;;;;;;;;2609404;54;20433;-73
2023/11/21 04:42:57;;;;;;;19.47;11.90;;;;;;;;;;2608815;54;20443;-74
2023/11/21 04:45:23;;;;;;;18.40;12.13;;;;;;;;;;2609835;54;20403;-74
2023/11/21 04:47:49;;;;;;;19.60;11.23;;;;;;;;;;2610136;39;20859;-74
2023/11/21 04:50:15;;;;;;;20.60;12.13;;;;;;;;;;2610366;54;20430;-74
2023/11/21 04:52:41;;;;;;;24.13;12.43;;;;;;;;;;2609421;54;21022;-75
2023/11/21 04:55:09;;;;;;;19.77;13.10;;;;;;;;;;2609597;54;20475;-74
2023/11/21 04:57:36;;;;;;;27.90;13.80;;;;;;;;;;2609572;54;20450;-75
2023/11/21 05:00:05;;;;;;;25.13;13.00;;;;;;;;;;2608972;54;21278;-74
2023/11/21 05:02:33;;;;;;;27.43;13.50;;;;;;;;;;2609157;54;20406;-74
2023/11/21 05:05:00;;;;;;;23.53;13.97;;;;;;;;;;2609113;54;20547;-75
2023/11/21 05:07:28;;;;;;;22.83;13.83;;;;;;;;;;2609269;54;20577;-73
2023/11/21 05:09:55;;;;;;;21.73;13.50;;;;;;;;;;2609841;54;20506;-75
2023/11/21 05:12:23;;;;;;;15.80;12.23;;;;;;;;;;2609521;39;20932;-75
2023/11/21 05:14:49;;;;;;;19.53;12.60;;;;;;;;;;2610077;54;21046;-74
2023/11/21 05:17:15;;;;;;;23.30;14.30;;;;;;;;;;2610832;47;20426;-75
2023/11/21 05:19:41;;;;;;;24.67;14.67;;;;;;;;;;2612752;54;20485;-75
2023/11/21 05:22:08;;;;;;;24.50;13.10;;;;;;;;;;2611488;51;21034;-74
2023/11/21 05:24:34;;;;;;;26.57;14.53;;;;;;;;;;2611294;54;20569;-74
2023/11/21 05:27:01;;;;;;;22.17;13.70;;;;;;;;;;2611454;54;20435;-74
2023/11/21 05:29:27;;;;;;;32.10;13.57;;;;;;;;;;2611653;54;20523;-74
2023/11/21 05:31:53;;;;;;;24.07;13.03;;;;;;;;;;2611324;54;20497;-75
2023/11/21 05:34:20;;;;;;;24.90;13.23;;;;;;;;;;2611450;54;20491;-74
2023/11/21 05:36:46;;;;;;;21.17;14.57;;;;;;;;;;2611285;54;20400;-74
2023/11/21 05:39:12;;;;;;;20.23;13.07;;;;;;;;;;2611212;54;20427;-74
2023/11/21 05:41:38;;;;;;;27.27;13.47;;;;;;;;;;2609816;54;20437;-73
2023/11/21 05:44:05;;;;;;;27.53;14.67;;;;;;;;;;2609473;54;20434;-74
2023/11/21 05:46:31;;;;;;;25.63;14.50;;;;;;;;;;2609667;47;21020;-73
2023/11/21 05:48:57;;;;;;;29.67;13.83;;;;;;;;;;2608152;54;20410;-74
2023/11/21 05:51:23;;;;;;;27.00;15.60;;;;;;;;;;2607034;47;20498;-74
2023/11/21 05:53:49;;;;;;;30.67;15.13;;;;;;;;;;2610981;54;21572;-73
2023/11/21 05:56:15;;;;;;;25.00;14.60;;;;;;;;;;2612514;54;20471;-74
2023/11/21 05:58:42;;;;;;;19.27;13.73;;;;;;;;;;2612473;54;20430;-74
2023/11/21 06:01:09;;;;;;;26.00;15.40;;;;;;;;;;2612206;54;20461;-75
2023/11/21 06:03:35;;;;;;;22.67;14.57;;;;;;;;;;2613011;54;20439;-75
2023/11/21 06:06:02;;;;;;;24.80;13.30;;;;;;;;;;2612740;54;20426;-75
2023/11/21 06:08:28;;;;;;;24.60;13.47;;;;;;;;;;2613205;54;20461;-75
2023/11/21 06:10:55;;;;;;;22.80;12.97;;;;;;;;;;2612740;54;20406;-76
2023/11/21 06:13:24;;;;;;;19.03;12.57;;;;;;;;;;2611501;47;20774;-74
2023/11/21 06:15:50;;;;;;;20.73;13.63;;;;;;;;;;2612756;50;20399;-75
2023/11/21 06:18:19;;;;;;;27.83;13.80;;;;;;;;;;2612639;47;20431;-75
2023/11/21 06:20:45;;;;;;;31.20;15.07;;;;;;;;;;2613145;54;20471;-73
2023/11/21 06:23:11;;;;;;;28.57;15.87;;;;;;;;;;2613608;39;21106;-75
2023/11/21 06:25:37;;;;;;;27.00;17.30;;;;;;;;;;2613158;39;20737;-75
2023/11/21 06:28:03;;;;;;;22.50;14.23;;;;;;;;;;2613408;46;20431;-75
2023/11/21 06:30:29;;;;;;;33.17;16.40;;;;;;;;;;2613609;54;20434;-75
2023/11/21 06:33:02;;;;;;;25.67;15.17;;;;;;;;;;2613260;54;21096;-75
2023/11/21 06:35:34;;;;;;;30.00;14.87;;;;;;;;;;2612261;47;20419;-75
2023/11/21 06:38:01;;;;;;;29.33;16.53;;;;;;;;;;2613397;54;20438;-76
2023/11/21 06:40:26;;;;;;;21.80;15.30;;;;;;;;;;2612188;47;20986;-76
2023/11/21 06:42:59;;;;;;;27.60;15.57;;;;;;;;;;2612647;47;20500;-76
2023/11/21 06:45:25;;;;;;;27.97;16.70;;;;;;;;;;2615033;54;20427;-81
2023/11/21 06:47:51;;;;;;;26.60;16.10;;;;;;;;;;2613142;47;21033;-75
2023/11/21 06:50:17;;;;;;;32.03;17.07;;;;;;;;;;2612566;54;20423;-76
2023/11/21 06:52:43;;;;;;;29.50;15.77;;;;;;;;;;2612388;46;21041;-76
2023/11/21 06:55:09;;;;;;;31.20;16.07;;;;;;;;;;2613305;54;20429;-75
2023/11/21 06:57:35;;;;;;;26.87;15.40;;;;;;;;;;2613264;54;20467;-76
2023/11/21 07:00:02;;;;;;;32.90;17.07;;;;;;;;;;2613394;54;20438;-77
2023/11/21 07:02:29;;;;;;;24.07;15.10;;;;;;;;;;2613716;54;20990;-75
2023/11/21 07:04:57;;;;;;;25.00;15.30;;;;;;;;;;2613740;54;20434;-75
2023/11/21 07:07:24;;;;;;;33.63;16.97;;;;;;;;;;2614873;54;20432;-76
2023/11/21 07:09:51;;;;;;;30.87;16.60;;;;;;;;;;2612648;54;20438;-76
2023/11/21 07:12:18;;;;;;;29.13;17.60;;;;;;;;;;2613272;46;20973;-74
2023/11/21 07:14:44;;;;;;;35.77;17.70;;;;;;;;;;2611620;54;20393;-73
2023/11/21 07:17:11;;;;;;;26.50;17.33;;;;;;;;;;2611471;54;20509;-74
2023/11/21 07:19:38;;;;;;;35.03;17.33;;;;;;;;;;2611122;54;20435;-73
2023/11/21 07:22:05;;;;;;;26.93;17.40;;;;;;;;;;2611590;39;20751;-74
2023/11/21 07:24:31;;;;;;;24.50;16.20;;;;;;;;;;2610058;54;20415;-74
2023/11/21 07:26:58;;;;;;;29.53;16.30;;;;;;;;;;2609359;54;20466;-75
2023/11/21 07:29:29;;;;;;;33.90;17.03;;;;;;;;;;2610106;47;20427;-74
2023/11/21 07:31:55;;;;;;;26.63;15.90;;;;;;;;;;2610056;54;20391;-73
2023/11/21 07:34:21;;;;;;;25.77;16.10;;;;;;;;;;2609745;54;20429;-73
2023/11/21 07:36:48;;;;;;;27.50;15.47;;;;;;;;;;2608298;54;20522;-73
2023/11/21 07:39:16;;;;;;;32.60;15.47;;;;;;;;;;2604894;54;20430;-73
2023/11/21 07:41:48;;;;;;;25.27;15.27;;;;;;;;;;2610245;54;20423;-74
2023/11/21 07:44:15;;;;;;;29.80;18.60;;;;;;;;;;2611464;54;20399;-74
2023/11/21 07:46:41;;;;;;;34.93;16.67;;;;;;;;;;2610330;54;20425;-74
2023/11/21 07:49:07;;;;;;;29.90;16.60;;;;;;;;;;2612106;54;20418;-75
2023/11/21 07:51:33;;;;;;;26.87;15.10;;;;;;;;;;2610699;54;20410;-75
2023/11/21 07:54:00;;;;;;;36.17;17.30;;;;;;;;;;2611167;54;20434;-74
2023/11/21 07:56:26;;;;;;;36.87;18.10;;;;;;;;;;2609685;54;21028;-74
2023/11/21 07:58:53;;;;;;;34.90;20.30;;;;;;;;;;2610611;39;20670;-74
2023/11/21 08:01:19;;;;;;;34.77;18.57;;;;;;;;;;2609500;54;20926;-73
2023/11/21 08:03:45;;;;;;;38.47;19.97;;;;;;;;;;2610401;54;20423;-74
2023/11/21 08:06:11;;;;;;;33.97;19.30;;;;;;;;;;2611712;54;20419;-74
2023/11/21 08:08:38;;;;;;;46.27;19.77;;;;;;;;;;2611345;54;20462;-74
2023/11/21 08:11:04;;;;;;;35.13;19.83;;;;;;;;;;2610684;54;20968;-74
2023/11/21 08:13:30;;;;;;;38.93;19.10;;;;;;;;;;2611269;54;20431;-74
2023/11/21 08:16:01;;;;;;;38.13;19.87;;;;;;;;;;2611872;31;20893;-73
2023/11/21 08:18:27;;;;;;;44.07;20.63;;;;;;;;;;2610456;54;20434;-75
2023/11/21 08:20:55;;;;;;;40.13;21.00;;;;;;;;;;2611626;54;20939;-75
2023/11/21 08:23:25;;;;;;;34.80;20.00;;;;;;;;;;2613266;54;20383;-74
2023/11/21 08:25:52;;;;;;;36.07;21.30;;;;;;;;;;2614489;54;20569;-74
2023/11/21 08:28:18;;;;;;;42.27;21.47;;;;;;;;;;2614866;54;21385;-74
2023/11/21 08:30:44;;;;;;;35.03;19.80;;;;;;;;;;2614613;54;20442;-74
2023/11/21 08:33:13;;;;;;;30.27;17.90;;;;;;;;;;2614103;54;20424;-74
2023/11/21 08:35:39;;;;;;;36.60;20.50;;;;;;;;;;2614506;54;20418;-74
2023/11/21 08:38:07;;;;;;;45.27;25.73;;;;;;;;;;2614404;47;20412;-74
2023/11/21 08:40:35;;;;;;;55.33;27.43;;;;;;;;;;2614482;39;20479;-74
2023/11/21 08:43:04;;;;;;;59.13;29.40;;;;;;;;;;2613515;54;20427;-74
2023/11/21 08:45:37;;;;;;;76.33;34.37;;;;;;;;;;2614433;54;20426;-75
2023/11/21 08:48:04;;;;;;;86.33;37.50;;;;;;;;;;2614507;54;20442;-75
2023/11/21 08:50:40;;;;;;;91.63;37.87;;;;;;;;;;2614814;54;20427;-75
2023/11/21 08:53:07;;;;;;;76.40;37.33;;;;;;;;;;2614906;54;20429;-74
2023/11/21 08:55:39;;;;;;;85.77;37.97;;;;;;;;;;2615187;54;20429;-74
2023/11/21 08:58:05;;;;;;;85.97;38.57;;;;;;;;;;2614831;54;20422;-74
2023/11/21 09:00:32;;;;;;;81.80;37.60;;;;;;;;;;2613630;47;20442;-75
2023/11/21 09:03:16;;;;;;;93.73;41.50;;;;;;;;;;2615085;54;20391;-74
2023/11/21 09:05:42;;;;;;;93.67;39.47;;;;;;;;;;2615250;54;20402;-75
2023/11/21 09:08:32;;;;;;;86.23;38.00;;;;;;;;;;2614785;46;20544;-75
2023/11/21 09:10:59;;;;;;;87.80;37.40;;;;;;;;;;2613996;54;20411;-74
2023/11/21 09:13:25;;;;;;;91.73;37.60;;;;;;;;;;2614941;47;20579;-75
2023/11/21 09:15:51;;;;;;;94.80;41.20;;;;;;;;;;2614151;54;21387;-75
2023/11/21 09:18:17;;;;;;;94.97;37.47;;;;;;;;;;2614348;47;20495;-75
2023/11/21 09:20:44;;;;;;;87.07;37.17;;;;;;;;;;2614471;47;20428;-74
2023/11/21 09:23:10;;;;;;;89.60;36.77;;;;;;;;;;2614491;47;21041;-75
2023/11/21 09:25:37;;;;;;;86.80;38.13;;;;;;;;;;2615622;54;20539;-75
2023/11/21 09:28:07;;;;;;;88.10;37.53;;;;;;;;;;2615758;54;20439;-75
2023/11/21 09:30:35;;;;;;;104.63;38.30;;;;;;;;;;2616292;39;20816;-76
2023/11/21 09:33:02;;;;;;;83.77;40.33;;;;;;;;;;2613660;47;20442;-75
2023/11/21 09:35:28;;;;;;;96.37;40.40;;;;;;;;;;2610292;54;20415;-75
2023/11/21 09:37:55;;;;;;;94.53;41.73;;;;;;;;;;2610148;54;21019;-73
2023/11/21 09:40:22;;;;;;;110.40;40.00;;;;;;;;;;2609453;54;20993;-75
2023/11/21 09:42:54;;;;;;;90.07;39.73;;;;;;;;;;2610072;54;20424;-74
2023/11/21 09:45:31;;;;;;;101.80;42.33;;;;;;;;;;2609791;54;20407;-74
2023/11/21 09:47:57;;;;;;;90.50;37.60;;;;;;;;;;2609594;47;20400;-75
2023/11/21 09:50:24;;;;;;;83.27;36.83;;;;;;;;;;2609844;46;20401;-74
2023/11/21 09:52:57;;;;;;;81.73;38.63;;;;;;;;;;2611105;54;20420;-76
2023/11/21 09:55:26;;;;;;;87.37;36.33;;;;;;;;;;2610709;54;20423;-74
2023/11/21 09:57:54;;;;;;;97.63;40.53;;;;;;;;;;2610689;54;20438;-74
2023/11/21 10:00:23;;;;;;;102.53;37.67;;;;;;;;;;2608772;54;20431;-74
2023/11/21 10:02:49;;;;;;;113.83;40.63;;;;;;;;;;2611124;54;20402;-74
2023/11/21 10:05:17;;;;;;;90.03;34.33;;;;;;;;;;2610758;47;21080;-74
2023/11/21 10:07:44;;;;;;;89.30;36.80;;;;;;;;;;2611893;54;20471;-74
2023/11/21 10:10:11;;;;;;;89.17;36.27;;;;;;;;;;2610581;54;20442;-76
2023/11/21 10:12:38;;;;;;;85.33;37.43;;;;;;;;;;2608726;54;20423;-75
2023/11/21 10:15:08;;;;;;;87.77;38.07;;;;;;;;;;2609340;54;20661;-75
2023/11/21 10:17:42;;;;;;;92.47;36.93;;;;;;;;;;2609294;39;20882;-75
2023/11/21 10:20:11;;;;;;;80.13;34.60;;;;;;;;;;2611208;54;20415;-74
2023/11/21 10:22:41;;;;;;;87.33;34.90;;;;;;;;;;2611310;54;20380;-75
2023/11/21 10:25:08;;;;;;;79.73;37.60;;;;;;;;;;2612324;54;20408;-75
2023/11/21 10:27:34;;;;;;;73.43;36.47;;;;;;;;;;2611335;54;20458;-75
2023/11/21 10:30:04;;;;;;;79.90;34.87;;;;;;;;;;2611189;54;20434;-73
2023/11/21 10:32:33;;;;;;;70.40;34.53;;;;;;;;;;2610209;54;20903;-76
2023/11/21 10:35:09;;;;;;;66.77;32.60;;;;;;;;;;2608978;54;20422;-74
2023/11/21 10:37:39;;;;;;;73.60;34.27;;;;;;;;;;2610957;54;20434;-75
2023/11/21 10:40:05;;;;;;;68.03;32.13;;;;;;;;;;2610608;54;20407;-74
2023/11/21 10:42:32;;;;;;;83.67;34.93;;;;;;;;;;2610813;54;20423;-75
2023/11/21 10:44:58;;;;;;;90.37;36.13;;;;;;;;;;2611616;54;20407;-73
2023/11/21 10:47:26;;;;;;;77.33;34.10;;;;;;;;;;2610912;54;20396;-74
2023/11/21 10:49:55;;;;;;;69.63;34.00;;;;;;;;;;2611474;47;20451;-75
2023/11/21 10:52:21;;;;;;;90.47;36.23;;;;;;;;;;2610442;54;21002;-74
2023/11/21 10:54:47;;;;;;;86.97;35.80;;;;;;;;;;2609745;54;20423;-75
2023/11/21 10:57:17;;;;;;;73.33;35.23;;;;;;;;;;2610436;46;20439;-74
2023/11/21 10:59:45;;;;;;;79.37;34.87;;;;;;;;;;2611019;39;20917;-74
2023/11/21 11:02:33;;;;;;;73.03;33.20;;;;;;;;;;2610727;39;21244;-75
2023/11/21 11:05:00;;;;;;;70.33;32.33;;;;;;;;;;2611517;54;20488;-75
2023/11/21 11:07:27;;;;;;;68.53;33.40;;;;;;;;;;2611929;46;20399;-75
2023/11/21 11:09:56;;;;;;;69.10;34.00;;;;;;;;;;2612219;54;20507;-74
2023/11/21 11:12:22;;;;;;;65.90;31.00;;;;;;;;;;2610778;39;21060;-74
2023/11/21 11:14:49;;;;;;;76.73;31.30;;;;;;;;;;2612504;39;20774;-75
2023/11/21 11:17:16;;;;;;;70.47;33.10;;;;;;;;;;2611670;54;20543;-76
2023/11/21 11:19:42;;;;;;;62.40;31.27;;;;;;;;;;2612277;54;20402;-74
2023/11/21 11:22:28;;;;;;;60.40;31.13;;;;;;;;;;2612097;39;20785;-74
2023/11/21 11:25:05;;;;;;;52.27;30.50;;;;;;;;;;2611376;54;20492;-74
2023/11/21 11:27:45;;;;;;;51.03;27.10;;;;;;;;;;2611673;54;20466;-76
2023/11/21 11:30:20;;;;;;;43.03;25.90;;;;;;;;;;2611253;54;20438;-74
2023/11/21 11:33:07;;;;;;;51.80;26.40;;;;;;;;;;2610691;47;20391;-75
2023/11/21 11:35:33;;;;;;;51.50;27.80;;;;;;;;;;2611483;54;20950;-76
2023/11/21 11:37:59;;;;;;;48.33;27.90;;;;;;;;;;2611413;54;20435;-75
2023/11/21 11:40:39;;;;;;;56.37;31.10;;;;;;;;;;2611034;51;20435;-75
2023/11/21 11:43:07;;;;;;;47.80;25.43;;;;;;;;;;2610301;47;21047;-75
2023/11/21 11:45:35;;;;;;;50.20;25.50;;;;;;;;;;2611657;54;20392;-77
2023/11/21 11:48:03;;;;;;;50.07;30.37;;;;;;;;;;2611067;47;20415;-75
2023/11/21 11:50:29;;;;;;;49.53;27.33;;;;;;;;;;2611806;54;20420;-76
2023/11/21 11:52:57;;;;;;;60.33;33.30;;;;;;;;;;2611453;54;20454;-75
2023/11/21 11:55:24;;;;;;;53.33;31.07;;;;;;;;;;2608987;54;20539;-76
2023/11/21 11:57:51;;;;;;;57.70;31.83;;;;;;;;;;2611861;54;20490;-76
2023/11/21 12:00:27;;;;;;;46.37;28.67;;;;;;;;;;2610708;54;20503;-75
2023/11/21 12:03:01;;;;;;;56.97;28.63;;;;;;;;;;2611636;54;20384;-76
2023/11/21 12:05:29;;;;;;;52.87;31.40;;;;;;;;;;2611353;54;20977;-76
2023/11/21 12:07:57;;;;;;;43.77;30.57;;;;;;;;;;2611909;39;20855;-76
2023/11/21 12:10:24;;;;;;;51.57;30.67;;;;;;;;;;2610526;47;20466;-77
2023/11/21 12:12:56;;;;;;;46.13;27.50;;;;;;;;;;2610425;54;20923;-77
2023/11/21 12:15:31;;;;;;;44.17;29.10;;;;;;;;;;2616679;39;20806;-76
2023/11/21 12:17:57;;;;;;;37.57;24.20;;;;;;;;;;2616252;54;20427;-76
2023/11/21 12:20:24;;;;;;;39.27;25.20;;;;;;;;;;2615536;54;20550;-77
2023/11/21 12:22:51;;;;;;;38.80;19.90;;;;;;;;;;2617035;39;20916;-76
2023/11/21 12:25:36;;;;;;;31.17;20.93;;;;;;;;;;2616150;39;20839;-76
2023/11/21 12:28:02;;;;;;;29.00;18.63;;;;;;;;;;2615792;54;20469;-77
2023/11/21 12:30:35;;;;;;;32.00;19.50;;;;;;;;;;2614695;54;20415;-76
2023/11/21 12:33:06;;;;;;;33.57;20.53;;;;;;;;;;2614983;54;20415;-76
2023/11/21 12:35:37;;;;;;;41.93;20.53;;;;;;;;;;2615190;54;21030;-76
2023/11/21 12:38:05;;;;;;;27.87;19.00;;;;;;;;;;2616039;54;20510;-75
2023/11/21 12:40:31;;;;;;;32.90;21.23;;;;;;;;;;2615240;47;20395;-76
2023/11/21 12:43:01;;;;;;;39.03;20.17;;;;;;;;;;2616599;39;20835;-76
2023/11/21 12:45:37;;;;;;;31.53;20.30;;;;;;;;;;2615019;47;20423;-77
2023/11/21 12:48:11;;;;;;;32.53;20.13;;;;;;;;;;2615532;54;20394;-76
2023/11/21 12:50:39;;;;;;;32.10;20.27;;;;;;;;;;2614722;54;20407;-76
2023/11/21 12:53:16;;;;;;;26.10;18.50;;;;;;;;;;2614709;54;20435;-76
2023/11/21 12:55:49;;;;;;;28.57;18.40;;;;;;;;;;2615669;54;20514;-76
2023/11/21 12:58:16;;;;;;;31.00;19.40;;;;;;;;;;2615201;39;20813;-76
2023/11/21 13:00:51;;;;;;;32.63;17.70;;;;;;;;;;2615173;54;20946;-76
2023/11/21 13:03:23;;;;;;;26.70;18.20;;;;;;;;;;2615692;54;20428;-76
2023/11/21 13:05:50;;;;;;;29.93;17.80;;;;;;;;;;2615358;54;20439;-77
2023/11/21 13:08:21;;;;;;;27.80;17.73;;;;;;;;;;2615461;54;20423;-77
2023/11/21 13:10:51;;;;;;;28.00;18.63;;;;;;;;;;2614757;54;20427;-78
2023/11/21 13:13:24;;;;;;;24.90;18.57;;;;;;;;;;2614822;47;20517;-77
2023/11/21 13:15:50;;;;;;;20.63;14.80;;;;;;;;;;2614994;47;20431;-77
2023/11/21 13:18:17;;;;;;;38.63;31.33;;;;;;;;;;2615133;47;21487;-77
2023/11/21 13:20:43;;;;;;;26.40;19.10;;;;;;;;;;2614959;54;20435;-76
2023/11/21 13:23:12;;;;;;;26.90;18.00;;;;;;;;;;2614966;46;20487;-76
2023/11/21 13:25:42;;;;;;;27.97;16.70;;;;;;;;;;2615339;54;20404;-76
2023/11/21 13:28:09;;;;;;;21.93;14.10;;;;;;;;;;2615318;54;20427;-77
2023/11/21 13:30:44;;;;;;;20.20;13.13;;;;;;;;;;2615389;46;20430;-77
2023/11/21 13:33:13;;;;;;;21.47;13.17;;;;;;;;;;2615440;54;20543;-76
2023/11/21 13:35:43;;;;;;;19.70;13.13;;;;;;;;;;2615388;39;20837;-76
2023/11/21 13:38:12;;;;;;;18.83;13.53;;;;;;;;;;2615669;54;20427;-75
2023/11/21 13:40:55;;;;;;;20.87;13.90;;;;;;;;;;2616901;54;20938;-74
2023/11/21 13:43:24;;;;;;;21.50;14.33;;;;;;;;;;2616069;47;20411;-75
2023/11/21 13:46:03;;;;;;;27.67;13.77;;;;;;;;;;2616317;47;20424;-75
2023/11/21 13:48:40;;;;;;;23.40;14.87;;;;;;;;;;2615747;54;20435;-75
2023/11/21 13:51:17;;;;;;;18.03;13.37;;;;;;;;;;2616003;47;20423;-76
2023/11/21 13:53:47;;;;;;;24.07;14.97;;;;;;;;;;2615887;47;20411;-75
2023/11/21 13:56:18;;;;;;;19.80;12.93;;;;;;;;;;2615299;54;20470;-77
2023/11/21 13:58:53;;;;;;;19.40;12.33;;;;;;;;;;2616295;54;20518;-76
2023/11/21 14:04:02;;;;;;;19.20;12.13;;;;;;;;;;2616508;54;20396;-76
2023/11/21 14:06:35;;;;;;;20.40;14.00;;;;;;;;;;2616439;54;20435;-76
2023/11/21 14:09:05;;;;;;;19.87;13.40;;;;;;;;;;2615869;54;20424;-77
2023/11/21 14:11:34;;;;;;;24.00;12.80;;;;;;;;;;2614913;47;20424;-76
2023/11/21 14:14:00;;;;;;;20.23;13.00;;;;;;;;;;2615067;47;20407;-76
2023/11/21 14:16:27;;;;;;;25.27;14.60;;;;;;;;;;2615312;54;20542;-75
2023/11/21 14:19:03;;;;;;;22.83;11.37;;;;;;;;;;2614916;54;20479;-77
2023/11/21 14:21:32;;;;;;;15.10;10.30;;;;;;;;;;2615788;54;20404;-77
2023/11/21 14:24:00;;;;;;;21.70;11.13;;;;;;;;;;2615778;54;20515;-75
2023/11/21 14:26:27;;;;;;;20.43;11.73;;;;;;;;;;2612030;54;20529;-75